createdAt,value
2023-01-19T00:00:07.636Z,93826.00
2023-01-19T00:01:07.571Z,93830.00
2023-01-19T00:02:07.526Z,93830.00
2023-01-19T00:03:07.554Z,93830.00
2023-01-19T00:04:07.486Z,93832.00
2023-01-19T00:05:07.462Z,93834.00
2023-01-19T00:06:07.530Z,93834.00
2023-01-19T00:07:07.456Z,93836.00
2023-01-19T00:54:43.034Z,93881.00
2023-01-19T00:55:43.992Z,93883.00
2023-01-19T00:56:43.986Z,93885.00
2023-01-19T00:57:43.960Z,93885.00
2023-01-19T00:58:43.941Z,93885.00
2023-01-19T00:59:43.939Z,93885.00
2023-01-19T01:00:43.940Z,93887.00
2023-01-19T01:01:45.866Z,93891.00
2023-01-19T01:02:44.206Z,93891.00
2023-01-19T01:03:43.874Z,93893.00
2023-01-19T01:04:43.866Z,93891.00
2023-01-19T01:05:43.847Z,93891.00
2023-01-19T01:06:43.838Z,93887.00
2023-01-19T01:07:43.816Z,93887.00
2023-01-19T01:08:43.801Z,93887.00
2023-01-19T01:09:43.790Z,93887.00
2023-01-19T01:10:43.806Z,93891.00
2023-01-19T01:11:43.755Z,93889.00
2023-01-19T01:12:57.740Z,93893.00
2023-01-19T01:13:43.720Z,93891.00
2023-01-19T01:14:43.700Z,93895.00
2023-01-19T01:15:43.700Z,93895.00
2023-01-19T01:16:43.744Z,93891.00
2023-01-19T01:17:43.666Z,93893.00
2023-01-19T01:18:43.631Z,93891.00
2023-01-19T01:19:43.609Z,93895.00
2023-01-19T01:20:43.593Z,93895.00
2023-01-19T01:21:43.578Z,93895.00
2023-01-19T01:22:43.569Z,93895.00
2023-01-19T01:23:43.556Z,93897.00
2023-01-19T01:24:43.544Z,93899.00
2023-01-19T01:25:43.530Z,93899.00
2023-01-19T01:26:43.546Z,93897.00
2023-01-19T01:27:43.498Z,93895.00
2023-01-19T01:28:43.533Z,93895.00
2023-01-19T01:29:43.450Z,93897.00
2023-01-19T01:30:43.580Z,93893.00
2023-01-19T01:31:43.460Z,93895.00
2023-01-19T01:32:43.422Z,93895.00
2023-01-19T01:33:43.355Z,93897.00
2023-01-19T01:34:43.335Z,93899.00
2023-01-19T01:35:43.302Z,93897.00
2023-01-19T01:36:43.275Z,93899.00
2023-01-19T01:37:43.252Z,93899.00
2023-01-19T01:38:43.225Z,93901.00
2023-01-19T01:39:43.202Z,93901.00
2023-01-19T01:40:43.171Z,93901.00
2023-01-19T01:41:43.153Z,93902.00
2023-01-19T01:42:43.233Z,93904.00
2023-01-19T01:43:43.112Z,93902.00
2023-01-19T01:44:43.087Z,93904.00
2023-01-19T01:45:43.086Z,93904.00
2023-01-19T01:46:43.049Z,93904.00
2023-01-19T01:47:43.015Z,93908.00
2023-01-19T01:48:43.001Z,93910.00
2023-01-19T01:49:42.978Z,93910.00
2023-01-19T01:50:42.957Z,93912.00
2023-01-19T01:51:42.935Z,93916.00
2023-01-19T01:52:42.918Z,93918.00
2023-01-19T01:53:42.898Z,93916.00
2023-01-19T01:54:42.872Z,93916.00
2023-01-19T01:55:42.862Z,93916.00
2023-01-19T01:56:42.841Z,93920.00
2023-01-19T01:57:42.819Z,93920.00
2023-01-19T01:58:42.834Z,93920.00
2023-01-19T01:59:42.791Z,93922.00
2023-01-19T02:00:42.840Z,93924.00
2023-01-19T02:01:42.861Z,93926.00
2023-01-19T02:02:42.738Z,93926.00
2023-01-19T02:03:42.731Z,93926.00
2023-01-19T02:04:42.711Z,93928.00
2023-01-19T02:05:42.688Z,93928.00
2023-01-19T02:06:42.674Z,93930.00
2023-01-19T02:07:42.660Z,93928.00
2023-01-19T02:08:42.650Z,93926.00
2023-01-19T02:09:42.626Z,93928.00
2023-01-19T02:10:42.603Z,93928.00
2023-01-19T02:11:42.596Z,93932.00
2023-01-19T02:12:42.584Z,93930.00
2023-01-19T02:13:42.555Z,93932.00
2023-01-19T02:14:42.569Z,93932.00
2023-01-19T02:15:42.516Z,93932.00
2023-01-19T02:16:42.561Z,93934.00
2023-01-19T02:17:42.475Z,93934.00
2023-01-19T02:18:42.461Z,93934.00
2023-01-19T02:19:42.432Z,93932.00
2023-01-19T02:20:42.422Z,93928.00
2023-01-19T02:21:42.406Z,93928.00
2023-01-19T02:22:42.389Z,93928.00
2023-01-19T02:23:42.401Z,93926.00
2023-01-19T02:24:42.360Z,93928.00
2023-01-19T02:25:42.348Z,93932.00
2023-01-19T02:26:42.337Z,93928.00
2023-01-19T02:27:42.333Z,93930.00
2023-01-19T02:28:42.322Z,93930.00
2023-01-19T02:29:42.301Z,93930.00
2023-01-19T02:30:42.359Z,93930.00
2023-01-19T02:31:42.266Z,93932.00
2023-01-19T02:32:42.253Z,93934.00
2023-01-19T02:33:42.237Z,93934.00
2023-01-19T02:34:42.238Z,93936.00
2023-01-19T02:35:42.221Z,93936.00
2023-01-19T02:36:42.199Z,93936.00
2023-01-19T02:37:42.188Z,93936.00
2023-01-19T02:38:42.172Z,93934.00
2023-01-19T02:39:42.169Z,93934.00
2023-01-19T02:40:42.183Z,93932.00
2023-01-19T02:41:42.139Z,93930.00
2023-01-19T02:42:42.114Z,93928.00
2023-01-19T02:43:42.097Z,93926.00
2023-01-19T02:44:42.084Z,93926.00
2023-01-19T02:45:42.112Z,93928.00
2023-01-19T02:46:42.133Z,93928.00
2023-01-19T02:47:42.039Z,93928.00
2023-01-19T02:48:42.033Z,93932.00
2023-01-19T02:49:42.022Z,93934.00
2023-01-19T02:50:42.014Z,93934.00
2023-01-19T02:51:42.000Z,93936.00
2023-01-19T02:52:41.984Z,93934.00
2023-01-19T02:53:41.970Z,93934.00
2023-01-19T02:54:41.973Z,93936.00
2023-01-19T02:55:41.940Z,93932.00
2023-01-19T02:56:41.934Z,93934.00
2023-01-19T02:57:41.922Z,93934.00
2023-01-19T02:58:41.915Z,93932.00
2023-01-19T02:59:41.922Z,93932.00
2023-01-19T03:00:41.891Z,93932.00
2023-01-19T03:01:41.988Z,93930.00
2023-01-19T03:02:41.906Z,93928.00
2023-01-19T03:03:41.861Z,93930.00
2023-01-19T03:04:41.844Z,93928.00
2023-01-19T03:05:41.828Z,93926.00
2023-01-19T03:06:41.813Z,93926.00
2023-01-19T03:07:41.820Z,93926.00
2023-01-19T03:08:41.798Z,93926.00
2023-01-19T03:09:41.781Z,93924.00
2023-01-19T03:10:41.760Z,93922.00
2023-01-19T03:11:41.754Z,93922.00
2023-01-19T03:12:41.733Z,93920.00
2023-01-19T03:13:41.743Z,93920.00
2023-01-19T03:14:41.707Z,93918.00
2023-01-19T03:15:41.739Z,93918.00
2023-01-19T03:16:42.192Z,93920.00
2023-01-19T03:17:41.647Z,93920.00
2023-01-19T03:18:41.666Z,93922.00
2023-01-19T03:19:41.636Z,93922.00
2023-01-19T03:20:41.608Z,93924.00
2023-01-19T03:21:41.595Z,93924.00
2023-01-19T03:22:41.581Z,93928.00
2023-01-19T03:23:41.559Z,93928.00
2023-01-19T03:24:41.544Z,93932.00
2023-01-19T03:25:41.518Z,93930.00
2023-01-19T03:26:41.510Z,93932.00
2023-01-19T03:27:41.481Z,93936.00
2023-01-19T03:28:41.460Z,93938.00
2023-01-19T03:29:41.448Z,93944.00
2023-01-19T03:30:41.500Z,93942.00
2023-01-19T03:31:41.412Z,93940.00
2023-01-19T03:32:41.406Z,93940.00
2023-01-19T03:33:41.384Z,93938.00
2023-01-19T03:34:41.382Z,93940.00
2023-01-19T03:35:41.343Z,93940.00
2023-01-19T03:36:41.322Z,93944.00
2023-01-19T03:37:41.309Z,93946.00
2023-01-19T03:38:41.292Z,93946.00
2023-01-19T03:39:41.308Z,93946.00
2023-01-19T03:40:41.242Z,93946.00
2023-01-19T03:41:41.210Z,93949.00
2023-01-19T03:42:41.191Z,93948.00
2023-01-19T03:43:41.179Z,93949.00
2023-01-19T03:44:41.152Z,93949.00
2023-01-19T03:45:41.123Z,93948.00
2023-01-19T03:46:41.108Z,93942.00
2023-01-19T03:47:41.090Z,93942.00
2023-01-19T03:48:41.068Z,93949.00
2023-01-19T03:49:41.072Z,93948.00
2023-01-19T03:50:41.064Z,93949.00
2023-01-19T03:51:41.006Z,93949.00
2023-01-19T03:52:40.999Z,93951.00
2023-01-19T03:53:40.974Z,93953.00
2023-01-19T03:54:40.966Z,93953.00
2023-01-19T03:55:40.923Z,93955.00
2023-01-19T03:56:41.639Z,93955.00
2023-01-19T03:57:40.890Z,93959.00
2023-01-19T03:58:40.864Z,93959.00
2023-01-19T03:59:40.845Z,93959.00
2023-01-19T04:00:40.816Z,93961.00
2023-01-19T04:01:40.968Z,93963.00
2023-01-19T04:02:40.852Z,93963.00
2023-01-19T04:03:40.757Z,93963.00
2023-01-19T04:04:40.776Z,93963.00
2023-01-19T04:05:40.719Z,93965.00
2023-01-19T04:06:40.851Z,93969.00
2023-01-19T04:07:40.729Z,93967.00
2023-01-19T04:08:40.664Z,93969.00
2023-01-19T04:09:40.639Z,93971.00
2023-01-19T04:10:40.629Z,93973.00
2023-01-19T04:11:40.623Z,93971.00
2023-01-19T04:12:40.615Z,93973.00
2023-01-19T04:13:40.595Z,93973.00
2023-01-19T04:14:40.557Z,93973.00
2023-01-19T04:15:40.599Z,93975.00
2023-01-19T04:16:40.531Z,93975.00
2023-01-19T04:17:40.511Z,93977.00
2023-01-19T04:18:40.493Z,93977.00
2023-01-19T04:19:40.516Z,93975.00
2023-01-19T04:20:40.466Z,93975.00
2023-01-19T04:21:40.446Z,93975.00
2023-01-19T04:22:40.456Z,93975.00
2023-01-19T04:23:40.421Z,93979.00
2023-01-19T04:24:40.414Z,93979.00
2023-01-19T04:25:40.420Z,93979.00
2023-01-19T04:26:40.376Z,93977.00
2023-01-19T04:27:40.368Z,93975.00
2023-01-19T04:28:40.343Z,93975.00
2023-01-19T04:29:40.332Z,93977.00
2023-01-19T04:30:40.332Z,93977.00
2023-01-19T04:31:40.300Z,93977.00
2023-01-19T04:32:40.274Z,93977.00
2023-01-19T04:33:40.258Z,93977.00
2023-01-19T04:34:40.235Z,93977.00
2023-01-19T04:35:40.221Z,93977.00
2023-01-19T04:36:40.197Z,93977.00
2023-01-19T04:37:40.184Z,93979.00
2023-01-19T04:38:40.184Z,93977.00
2023-01-19T04:39:40.144Z,93977.00
2023-01-19T04:40:40.124Z,93977.00
2023-01-19T04:41:40.112Z,93977.00
2023-01-19T04:42:40.098Z,93979.00
2023-01-19T04:43:40.084Z,93977.00
2023-01-19T04:44:40.122Z,93981.00
2023-01-19T04:45:40.069Z,93979.00
2023-01-19T04:46:40.086Z,93983.00
2023-01-19T04:47:40.024Z,93985.00
2023-01-19T04:48:41.412Z,93981.00
2023-01-19T04:49:39.997Z,93981.00
2023-01-19T04:50:39.997Z,93981.00
2023-01-19T04:51:39.961Z,93981.00
2023-01-19T04:52:39.965Z,93981.00
2023-01-19T04:53:39.943Z,93977.00
2023-01-19T04:54:40.011Z,93981.00
2023-01-19T04:55:39.900Z,93979.00
2023-01-19T04:56:39.894Z,93979.00
2023-01-19T04:57:39.881Z,93979.00
2023-01-19T04:58:39.864Z,93979.00
2023-01-19T04:59:39.839Z,93981.00
2023-01-19T05:00:39.829Z,93983.00
2023-01-19T05:01:39.899Z,93983.00
2023-01-19T05:02:39.886Z,93985.00
2023-01-19T05:03:39.809Z,93987.00
2023-01-19T05:04:39.770Z,93991.00
2023-01-19T05:05:39.746Z,93993.00
2023-01-19T05:06:39.749Z,93989.00
2023-01-19T05:07:39.719Z,93991.00
2023-01-19T05:08:39.714Z,93991.00
2023-01-19T05:09:39.694Z,93993.00
2023-01-19T05:10:39.704Z,93991.00
2023-01-19T05:11:39.653Z,93997.00
2023-01-19T05:12:39.639Z,93995.00
2023-01-19T05:13:39.638Z,93997.00
2023-01-19T05:14:39.639Z,94001.00
2023-01-19T05:15:39.618Z,94003.00
2023-01-19T05:16:39.572Z,94003.00
2023-01-19T05:17:39.562Z,94004.00
2023-01-19T05:18:39.536Z,94003.00
2023-01-19T05:19:39.525Z,94003.00
2023-01-19T05:20:39.584Z,94004.00
2023-01-19T05:21:39.501Z,94006.00
2023-01-19T05:22:39.487Z,94004.00
2023-01-19T05:23:39.458Z,94006.00
2023-01-19T05:24:39.462Z,94006.00
2023-01-19T05:25:39.439Z,94010.00
2023-01-19T05:26:39.456Z,94012.00
2023-01-19T05:27:39.407Z,94012.00
2023-01-19T05:28:39.385Z,94012.00
2023-01-19T05:29:39.377Z,94016.00
2023-01-19T05:30:39.387Z,94018.00
2023-01-19T05:31:39.434Z,94020.00
2023-01-19T05:32:39.334Z,94022.00
2023-01-19T05:33:39.319Z,94020.00
2023-01-19T05:34:39.307Z,94020.00
2023-01-19T05:35:39.296Z,94020.00
2023-01-19T05:36:39.292Z,94020.00
2023-01-19T05:37:39.266Z,94020.00
2023-01-19T05:38:39.269Z,94020.00
2023-01-19T05:39:39.245Z,94022.00
2023-01-19T05:40:39.240Z,94022.00
2023-01-19T05:41:39.228Z,94022.00
2023-01-19T05:42:39.229Z,94022.00
2023-01-19T05:43:39.188Z,94022.00
2023-01-19T05:44:39.172Z,94022.00
2023-01-19T05:45:39.159Z,94022.00
2023-01-19T05:46:39.221Z,94022.00
2023-01-19T05:47:39.143Z,94020.00
2023-01-19T05:48:39.135Z,94020.00
2023-01-19T05:49:39.121Z,94020.00
2023-01-19T05:50:39.098Z,94024.00
2023-01-19T05:51:39.085Z,94026.00
2023-01-19T05:52:39.074Z,94026.00
2023-01-19T05:53:39.065Z,94026.00
2023-01-19T05:54:39.038Z,94028.00
2023-01-19T05:55:39.028Z,94028.00
2023-01-19T05:56:39.005Z,94030.00
2023-01-19T05:57:38.989Z,94030.00
2023-01-19T05:58:39.073Z,94034.00
2023-01-19T05:59:38.949Z,94036.00
2023-01-19T06:00:38.936Z,94036.00
2023-01-19T06:01:40.314Z,94038.00
2023-01-19T06:02:38.961Z,94042.00
2023-01-19T06:03:38.944Z,94044.00
2023-01-19T06:04:38.911Z,94042.00
2023-01-19T06:05:38.882Z,94042.00
2023-01-19T06:06:38.865Z,94048.00
2023-01-19T06:07:39.687Z,94046.00
2023-01-19T06:08:38.810Z,94046.00
2023-01-19T06:09:38.795Z,94048.00
2023-01-19T06:10:38.770Z,94044.00
2023-01-19T06:11:38.749Z,94046.00
2023-01-19T06:12:38.725Z,94046.00
2023-01-19T06:13:40.673Z,94046.00
2023-01-19T06:14:38.708Z,94044.00
2023-01-19T06:15:38.663Z,94048.00
2023-01-19T06:16:38.767Z,94046.00
2023-01-19T06:17:38.623Z,94048.00
2023-01-19T06:18:38.741Z,94048.00
2023-01-19T06:19:38.591Z,94050.00
2023-01-19T06:20:38.580Z,94050.00
2023-01-19T06:21:38.568Z,94050.00
2023-01-19T06:22:38.528Z,94050.00
2023-01-19T06:23:38.694Z,94050.00
2023-01-19T06:24:38.507Z,94051.00
2023-01-19T06:25:38.481Z,94051.00
2023-01-19T06:26:38.486Z,94051.00
2023-01-19T06:27:38.449Z,94055.00
2023-01-19T06:28:38.719Z,94057.00
2023-01-19T06:29:38.416Z,94055.00
2023-01-19T06:30:38.481Z,94055.00
2023-01-19T06:31:38.434Z,94055.00
2023-01-19T06:32:38.377Z,94057.00
2023-01-19T06:33:38.386Z,94055.00
2023-01-19T06:34:38.351Z,94055.00
2023-01-19T06:35:38.338Z,94055.00
2023-01-19T06:36:38.333Z,94055.00
2023-01-19T06:37:38.698Z,94059.00
2023-01-19T06:38:38.301Z,94059.00
2023-01-19T06:39:38.700Z,94063.00
2023-01-19T06:40:38.261Z,94065.00
2023-01-19T06:41:38.248Z,94069.00
2023-01-19T06:42:38.268Z,94067.00
2023-01-19T06:43:38.215Z,94069.00
2023-01-19T06:44:38.701Z,94069.00
2023-01-19T06:45:38.228Z,94069.00
2023-01-19T06:46:38.216Z,94069.00
2023-01-19T06:47:38.203Z,94071.00
2023-01-19T06:48:38.154Z,94071.00
2023-01-19T06:49:38.206Z,94075.00
2023-01-19T06:50:38.161Z,94075.00
2023-01-19T06:51:38.164Z,94073.00
2023-01-19T06:52:38.135Z,94075.00
2023-01-19T06:53:38.146Z,94077.00
2023-01-19T06:54:38.605Z,94079.00
2023-01-19T06:56:41.299Z,94079.00
2023-01-19T06:57:38.084Z,94079.00
2023-01-19T06:58:38.110Z,94077.00
2023-01-19T06:59:39.318Z,94079.00
2023-01-19T07:00:38.250Z,94081.00
2023-01-19T07:01:38.251Z,94083.00
2023-01-19T07:02:38.218Z,94083.00
2023-01-19T07:03:38.210Z,94087.00
2023-01-19T07:04:38.008Z,94087.00
2023-01-19T07:05:37.984Z,94087.00
2023-01-19T07:07:38.215Z,94087.00
2023-01-19T07:08:37.947Z,94089.00
2023-01-19T07:09:37.935Z,94089.00
2023-01-19T07:11:26.759Z,94087.00
2023-01-19T07:11:37.903Z,94085.00
2023-01-19T07:13:38.127Z,94087.00
2023-01-19T07:14:41.074Z,94089.00
2023-01-19T07:15:37.855Z,94087.00
2023-01-19T07:16:37.853Z,94085.00
2023-01-19T07:17:38.224Z,94085.00
2023-01-19T07:18:37.885Z,94087.00
2023-01-19T07:19:37.773Z,94087.00
2023-01-19T07:20:37.754Z,94087.00
2023-01-19T07:21:37.753Z,94087.00
2023-01-19T07:22:37.773Z,94087.00
2023-01-19T07:23:37.692Z,94091.00
2023-01-19T07:24:37.682Z,94093.00
2023-01-19T07:25:37.651Z,94097.00
2023-01-19T07:26:37.704Z,94098.00
2023-01-19T07:27:37.686Z,94098.00
2023-01-19T07:28:38.610Z,94100.00
2023-01-19T07:29:37.754Z,94100.00
2023-01-19T07:30:37.666Z,94102.00
2023-01-19T07:31:37.671Z,94106.00
2023-01-19T07:32:38.046Z,94108.00
2023-01-19T07:33:37.527Z,94110.00
2023-01-19T07:34:37.536Z,94120.00
2023-01-19T07:35:37.472Z,94122.00
2023-01-19T07:36:37.480Z,94122.00
2023-01-19T07:37:37.793Z,94122.00
2023-01-19T07:38:37.426Z,94122.00
2023-01-19T07:39:37.980Z,94122.00
2023-01-19T07:40:37.464Z,94122.00
2023-01-19T07:42:09.132Z,94124.00
2023-01-19T07:42:37.755Z,94126.00
2023-01-19T07:43:38.201Z,94128.00
2023-01-19T07:44:37.322Z,94128.00
2023-01-19T07:45:37.892Z,94130.00
2023-01-19T07:46:37.501Z,94132.00
2023-01-19T07:47:37.329Z,94136.00
2023-01-19T07:48:37.232Z,94138.00
2023-01-19T07:49:37.199Z,94140.00
2023-01-19T07:50:37.329Z,94140.00
2023-01-19T07:51:37.186Z,94142.00
2023-01-19T07:52:37.137Z,94144.00
2023-01-19T07:53:53.036Z,94144.00
2023-01-19T07:54:37.269Z,94146.00
2023-01-19T07:55:37.049Z,94144.00
2023-01-19T07:57:37.050Z,94150.00
2023-01-19T07:59:38.167Z,94148.00
2023-01-19T08:00:36.961Z,94148.00
2023-01-19T08:01:39.177Z,94146.00
2023-01-19T08:02:36.904Z,94146.00
2023-01-19T08:03:37.265Z,94144.00
2023-01-19T08:04:36.910Z,94146.00
2023-01-19T08:05:37.819Z,94146.00
2023-01-19T08:06:36.873Z,94146.00
2023-01-19T08:07:36.786Z,94148.00
2023-01-19T08:08:36.763Z,94150.00
2023-01-19T08:09:36.854Z,94151.00
2023-01-19T08:10:36.845Z,94151.00
2023-01-19T08:11:36.678Z,94151.00
2023-01-19T08:12:37.777Z,94151.00
2023-01-19T08:13:36.779Z,94151.00
2023-01-19T08:14:36.589Z,94151.00
2023-01-19T08:15:36.612Z,94153.00
2023-01-19T08:16:36.512Z,94157.00
2023-01-19T08:17:36.767Z,94159.00
2023-01-19T08:18:36.501Z,94161.00
2023-01-19T08:19:36.473Z,94163.00
2023-01-19T08:20:36.461Z,94165.00
2023-01-19T08:21:36.757Z,94161.00
2023-01-19T08:22:36.416Z,94161.00
2023-01-19T08:23:36.836Z,94159.00
2023-01-19T08:24:36.340Z,94159.00
2023-01-19T08:25:36.320Z,94163.00
2023-01-19T08:26:37.270Z,94167.00
2023-01-19T08:27:36.245Z,94167.00
2023-01-19T08:28:36.267Z,94173.00
2023-01-19T08:29:37.180Z,94175.00
2023-01-19T08:30:36.203Z,94179.00
2023-01-19T08:31:37.260Z,94177.00
2023-01-19T08:32:37.093Z,94179.00
2023-01-19T08:33:36.072Z,94175.00
2023-01-19T08:34:36.269Z,94175.00
2023-01-19T08:35:39.256Z,94177.00
2023-01-19T08:36:37.008Z,94177.00
2023-01-19T08:37:35.960Z,94177.00
2023-01-19T08:38:36.326Z,94179.00
2023-01-19T08:39:35.897Z,94179.00
2023-01-19T08:40:36.899Z,94179.00
2023-01-19T08:41:35.880Z,94185.00
2023-01-19T08:42:35.877Z,94185.00
2023-01-19T08:43:36.281Z,94185.00
2023-01-19T08:44:37.887Z,94185.00
2023-01-19T08:45:36.775Z,94185.00
2023-01-19T08:46:35.805Z,94185.00
2023-01-19T08:47:35.812Z,94183.00
2023-01-19T08:48:38.685Z,94181.00
2023-01-19T08:49:35.810Z,94183.00
2023-01-19T08:50:35.678Z,94181.00
2023-01-19T08:51:35.633Z,94187.00
2023-01-19T08:52:35.623Z,94185.00
2023-01-19T08:53:35.588Z,94187.00
2023-01-19T08:54:35.810Z,94189.00
2023-01-19T08:55:35.543Z,94189.00
2023-01-19T08:56:35.493Z,94189.00
2023-01-19T08:57:35.501Z,94191.00
2023-01-19T08:58:35.445Z,94191.00
2023-01-19T08:59:35.757Z,94191.00
2023-01-19T09:00:35.391Z,94193.00
2023-01-19T09:01:35.436Z,94193.00
2023-01-19T09:02:35.883Z,94191.00
2023-01-19T09:03:35.322Z,94193.00
2023-01-19T09:04:35.751Z,94197.00
2023-01-19T09:05:35.275Z,94198.00
2023-01-19T09:06:35.257Z,94198.00
2023-01-19T09:07:35.765Z,94198.00
2023-01-19T09:08:35.210Z,94200.00
2023-01-19T09:09:35.252Z,94198.00
2023-01-19T09:10:35.732Z,94204.00
2023-01-19T09:11:35.170Z,94204.00
2023-01-19T09:12:35.253Z,94198.00
2023-01-19T09:13:35.087Z,94198.00
2023-01-19T09:14:35.261Z,94202.00
2023-01-19T09:15:35.048Z,94210.00
2023-01-19T09:16:35.016Z,94210.00
2023-01-19T09:17:35.292Z,94212.00
2023-01-19T09:18:34.962Z,94212.00
2023-01-19T09:19:35.281Z,94214.00
2023-01-19T09:20:34.920Z,94214.00
2023-01-19T09:21:34.897Z,94212.00
2023-01-19T09:22:35.290Z,94214.00
2023-01-19T09:23:34.846Z,94218.00
2023-01-19T09:24:34.815Z,94216.00
2023-01-19T09:25:34.803Z,94220.00
2023-01-19T09:26:34.854Z,94222.00
2023-01-19T09:27:34.847Z,94222.00
2023-01-19T09:28:34.746Z,94224.00
2023-01-19T09:29:34.689Z,94226.00
2023-01-19T09:30:34.707Z,94226.00
2023-01-19T09:31:34.691Z,94230.00
2023-01-19T09:32:34.606Z,94230.00
2023-01-19T09:33:34.573Z,94232.00
2023-01-19T09:34:34.552Z,94232.00
2023-01-19T09:35:34.770Z,94236.00
2023-01-19T09:36:34.511Z,94238.00
2023-01-19T09:37:34.465Z,94234.00
2023-01-19T09:38:34.466Z,94238.00
2023-01-19T09:39:34.512Z,94234.00
2023-01-19T09:40:35.758Z,94234.00
2023-01-19T09:41:34.408Z,94234.00
2023-01-19T09:42:34.421Z,94230.00
2023-01-19T09:43:34.391Z,94232.00
2023-01-19T09:44:34.407Z,94232.00
2023-01-19T09:45:34.775Z,94230.00
2023-01-19T09:46:35.379Z,94236.00
2023-01-19T09:47:34.772Z,94234.00
2023-01-19T09:48:34.350Z,94236.00
2023-01-19T09:49:34.333Z,94240.00
2023-01-19T09:50:34.331Z,94242.00
2023-01-19T09:51:34.334Z,94242.00
2023-01-19T09:52:34.765Z,94240.00
2023-01-19T09:53:34.279Z,94240.00
2023-01-19T09:54:34.273Z,94236.00
2023-01-19T09:55:34.250Z,94238.00
2023-01-19T09:56:34.234Z,94236.00
2023-01-19T09:57:34.271Z,94234.00
2023-01-19T09:58:34.225Z,94230.00
2023-01-19T09:59:34.193Z,94230.00
2023-01-19T10:00:34.330Z,94228.00
2023-01-19T10:01:35.256Z,94228.00
2023-01-19T10:02:34.263Z,94228.00
2023-01-19T10:03:34.138Z,94228.00
2023-01-19T10:04:34.101Z,94230.00
2023-01-19T10:05:34.354Z,94232.00
2023-01-19T10:06:34.313Z,94232.00
2023-01-19T10:07:34.068Z,94232.00
2023-01-19T10:08:34.031Z,94232.00
2023-01-19T10:09:34.009Z,94232.00
2023-01-19T10:10:34.274Z,94232.00
2023-01-19T10:11:42.023Z,94232.00
2023-01-19T10:12:33.964Z,94230.00
2023-01-19T10:13:33.950Z,94232.00
2023-01-19T10:14:33.946Z,94232.00
2023-01-19T10:15:34.322Z,94232.00
2023-01-19T10:16:33.903Z,94234.00
2023-01-19T10:17:33.847Z,94234.00
2023-01-19T10:18:33.830Z,94236.00
2023-01-19T10:19:33.803Z,94232.00
2023-01-19T10:20:33.784Z,94234.00
2023-01-19T10:21:33.804Z,94232.00
2023-01-19T10:22:33.751Z,94230.00
2023-01-19T10:23:33.700Z,94234.00
2023-01-19T10:24:33.662Z,94232.00
2023-01-19T10:25:33.713Z,94236.00
2023-01-19T10:26:33.782Z,94234.00
2023-01-19T10:27:33.623Z,94232.00
2023-01-19T10:28:33.557Z,94232.00
2023-01-19T10:29:33.525Z,94234.00
2023-01-19T10:30:33.561Z,94236.00
2023-01-19T10:31:33.987Z,94234.00
2023-01-19T10:32:33.441Z,94234.00
2023-01-19T10:33:33.420Z,94234.00
2023-01-19T10:34:33.439Z,94234.00
2023-01-19T10:35:33.381Z,94234.00
2023-01-19T10:36:33.810Z,94232.00
2023-01-19T10:37:33.371Z,94232.00
2023-01-19T10:38:33.398Z,94232.00
2023-01-19T10:39:37.356Z,94234.00
2023-01-19T10:40:33.794Z,94234.00
2023-01-19T10:41:33.284Z,94232.00
2023-01-19T10:42:33.260Z,94230.00
2023-01-19T10:43:33.251Z,94232.00
2023-01-19T10:44:33.227Z,94230.00
2023-01-19T10:45:34.886Z,94230.00
2023-01-19T10:46:33.343Z,94230.00
2023-01-19T10:47:33.165Z,94228.00
2023-01-19T10:48:33.153Z,94230.00
2023-01-19T10:49:33.311Z,94226.00
2023-01-19T10:50:33.344Z,94226.00
2023-01-19T10:51:33.133Z,94228.00
2023-01-19T10:52:33.064Z,94224.00
2023-01-19T10:53:33.006Z,94222.00
2023-01-19T10:54:32.985Z,94224.00
2023-01-19T10:55:33.013Z,94222.00
2023-01-19T10:56:32.936Z,94222.00
2023-01-19T10:57:32.936Z,94218.00
2023-01-19T10:58:32.881Z,94220.00
2023-01-19T10:59:33.332Z,94218.00
2023-01-19T11:00:32.854Z,94218.00
2023-01-19T11:01:33.408Z,94220.00
2023-01-19T11:02:33.090Z,94220.00
2023-01-19T11:03:32.797Z,94222.00
2023-01-19T11:04:32.813Z,94218.00
2023-01-19T11:05:32.713Z,94218.00
2023-01-19T11:06:32.795Z,94218.00
2023-01-19T11:07:32.668Z,94216.00
2023-01-19T11:08:32.623Z,94218.00
2023-01-19T11:09:32.603Z,94212.00
2023-01-19T11:10:32.573Z,94214.00
2023-01-19T11:11:32.803Z,94216.00
2023-01-19T11:12:32.692Z,94216.00
2023-01-19T11:13:32.544Z,94214.00
2023-01-19T11:14:32.453Z,94214.00
2023-01-19T11:15:32.437Z,94216.00
2023-01-19T11:16:33.378Z,94216.00
2023-01-19T11:17:32.369Z,94216.00
2023-01-19T11:18:32.420Z,94212.00
2023-01-19T11:19:32.304Z,94214.00
2023-01-19T11:20:32.269Z,94210.00
2023-01-19T11:21:32.304Z,94214.00
2023-01-19T11:22:32.213Z,94208.00
2023-01-19T11:23:32.189Z,94210.00
2023-01-19T11:24:32.164Z,94210.00
2023-01-19T11:25:32.139Z,94208.00
2023-01-19T11:26:32.305Z,94204.00
2023-01-19T11:27:32.609Z,94206.00
2023-01-19T11:28:32.070Z,94200.00
2023-01-19T11:29:32.054Z,94206.00
2023-01-19T11:30:32.030Z,94204.00
2023-01-19T11:31:32.351Z,94206.00
2023-01-19T11:32:31.971Z,94204.00
2023-01-19T11:33:32.080Z,94202.00
2023-01-19T11:34:32.166Z,94202.00
2023-01-19T11:35:32.417Z,94204.00
2023-01-19T11:36:32.534Z,94200.00
2023-01-19T11:37:32.315Z,94200.00
2023-01-19T11:38:32.164Z,94200.00
2023-01-19T11:39:32.202Z,94200.00
2023-01-19T11:40:31.823Z,94202.00
2023-01-19T11:41:31.828Z,94198.00
2023-01-19T11:42:32.321Z,94198.00
2023-01-19T11:43:43.541Z,94193.00
2023-01-19T11:44:31.772Z,94191.00
2023-01-19T11:45:31.857Z,94195.00
2023-01-19T11:46:31.738Z,94191.00
2023-01-19T11:47:31.756Z,94191.00
2023-01-19T11:48:31.720Z,94191.00
2023-01-19T11:49:31.817Z,94191.00
2023-01-19T11:50:31.801Z,94189.00
2023-01-19T11:51:31.699Z,94189.00
2023-01-19T11:52:31.708Z,94185.00
2023-01-19T11:53:31.738Z,94183.00
2023-01-19T11:54:31.708Z,94183.00
2023-01-19T11:55:31.698Z,94181.00
2023-01-19T11:56:31.700Z,94181.00
2023-01-19T11:57:31.705Z,94183.00
2023-01-19T11:58:31.707Z,94181.00
2023-01-19T11:59:31.700Z,94179.00
2023-01-19T12:00:31.693Z,94177.00
2023-01-19T12:01:31.699Z,94179.00
2023-01-19T12:02:31.844Z,94179.00
2023-01-19T12:03:31.796Z,94179.00
2023-01-19T12:04:31.689Z,94177.00
2023-01-19T12:05:31.683Z,94177.00
2023-01-19T12:06:31.690Z,94175.00
2023-01-19T12:07:31.874Z,94175.00
2023-01-19T12:08:31.651Z,94173.00
2023-01-19T12:09:31.654Z,94171.00
2023-01-19T12:10:31.652Z,94173.00
2023-01-19T12:11:31.674Z,94175.00
2023-01-19T12:12:31.839Z,94173.00
2023-01-19T12:13:31.609Z,94177.00
2023-01-19T12:14:31.594Z,94173.00
2023-01-19T12:15:31.588Z,94175.00
2023-01-19T12:16:31.593Z,94171.00
2023-01-19T12:17:31.820Z,94173.00
2023-01-19T12:18:31.556Z,94171.00
2023-01-19T12:19:31.537Z,94169.00
2023-01-19T12:20:31.512Z,94173.00
2023-01-19T12:21:31.490Z,94173.00
2023-01-19T12:22:31.510Z,94169.00
2023-01-19T12:23:31.479Z,94169.00
2023-01-19T12:24:31.486Z,94171.00
2023-01-19T12:25:31.435Z,94173.00
2023-01-19T12:26:31.416Z,94173.00
2023-01-19T12:27:31.392Z,94173.00
2023-01-19T12:28:31.424Z,94177.00
2023-01-19T12:29:31.359Z,94173.00
2023-01-19T12:30:31.410Z,94175.00
2023-01-19T12:31:31.365Z,94171.00
2023-01-19T12:32:31.328Z,94171.00
2023-01-19T12:33:31.264Z,94171.00
2023-01-19T12:34:31.259Z,94171.00
2023-01-19T12:35:31.204Z,94171.00